createdAt,value
2017-09-07T00:00:16.969Z,15.80
2017-09-07T00:02:45.373Z,15.80
2017-09-07T00:05:13.726Z,15.70
2017-09-07T00:07:42.013Z,15.70
2017-09-07T00:10:10.357Z,15.70
2017-09-07T00:12:38.686Z,15.70
2017-09-07T00:15:07.013Z,15.70
2017-09-07T00:17:35.365Z,15.70
2017-09-07T00:20:41.097Z,15.60
2017-09-07T00:23:09.458Z,15.70
2017-09-07T00:25:37.810Z,15.60
2017-09-07T00:28:06.186Z,15.70
2017-09-07T00:30:34.494Z,15.60
2017-09-07T00:33:02.814Z,15.60
2017-09-07T00:35:31.176Z,15.50
2017-09-07T00:37:59.513Z,15.50
2017-09-07T00:40:29.395Z,15.60
2017-09-07T00:42:57.733Z,15.60
2017-09-07T00:45:26.046Z,15.50
2017-09-07T00:47:54.378Z,15.50
2017-09-07T00:50:22.680Z,15.50
2017-09-07T00:52:52.012Z,15.50
2017-09-07T00:55:20.309Z,15.50
2017-09-07T00:57:48.644Z,15.60
2017-09-07T01:00:17.014Z,15.50
2017-09-07T01:02:45.361Z,15.50
2017-09-07T01:05:14.511Z,15.60
2017-09-07T01:07:42.849Z,15.60
2017-09-07T01:10:11.219Z,15.60
2017-09-07T01:12:39.554Z,15.60
2017-09-07T01:15:07.862Z,15.60
2017-09-07T01:17:36.214Z,15.60
2017-09-07T01:20:04.524Z,15.50
2017-09-07T01:22:32.822Z,15.50
2017-09-07T01:25:06.471Z,15.50
2017-09-07T01:27:34.777Z,15.40
2017-09-07T01:30:03.109Z,15.40
2017-09-07T01:32:31.422Z,15.40
2017-09-07T01:34:59.755Z,15.40
2017-09-07T01:37:28.853Z,15.30
2017-09-07T01:39:57.279Z,15.30
2017-09-07T01:42:25.610Z,15.30
2017-09-07T01:44:53.926Z,15.30
2017-09-07T01:47:22.265Z,15.20
2017-09-07T01:49:52.313Z,15.30
2017-09-07T01:52:21.236Z,15.20
2017-09-07T01:54:50.085Z,15.30
2017-09-07T01:57:18.380Z,15.30
2017-09-07T01:59:46.733Z,15.30
2017-09-07T02:02:15.036Z,15.30
2017-09-07T02:04:43.368Z,15.20
2017-09-07T02:07:11.707Z,15.20
2017-09-07T02:09:40.053Z,15.20
2017-09-07T02:12:08.353Z,15.20
2017-09-07T02:14:36.721Z,15.20
2017-09-07T02:17:05.042Z,15.20
2017-09-07T02:19:33.343Z,15.30
2017-09-07T02:22:01.684Z,15.30
2017-09-07T02:24:29.991Z,15.30
2017-09-07T02:26:58.302Z,15.20
2017-09-07T02:29:26.650Z,15.30
2017-09-07T02:31:55.338Z,15.30
2017-09-07T02:34:23.642Z,15.40
2017-09-07T02:36:51.976Z,15.30
2017-09-07T02:39:20.278Z,15.30
2017-09-07T02:41:48.602Z,15.20
2017-09-07T02:44:16.896Z,15.10
2017-09-07T02:46:45.237Z,15.10
2017-09-07T02:49:13.589Z,15.10
2017-09-07T02:51:41.942Z,15.20
2017-09-07T02:54:10.300Z,15.20
2017-09-07T02:56:38.599Z,15.10
2017-09-07T02:59:06.912Z,15.20
2017-09-07T03:01:35.228Z,15.10
2017-09-07T03:04:03.553Z,15.20
2017-09-07T03:06:31.867Z,15.20
2017-09-07T03:09:00.180Z,15.20
2017-09-07T03:11:28.536Z,15.20
2017-09-07T03:13:56.850Z,15.10
2017-09-07T03:16:25.177Z,15.00
2017-09-07T03:18:53.501Z,14.90
2017-09-07T03:21:21.800Z,14.90
2017-09-07T03:23:50.130Z,15.00
2017-09-07T03:26:18.502Z,15.00
2017-09-07T03:28:46.849Z,15.00
2017-09-07T03:31:15.171Z,15.10
2017-09-07T03:33:43.506Z,15.20
2017-09-07T03:36:11.829Z,15.20
2017-09-07T03:38:40.134Z,15.20
2017-09-07T03:41:08.464Z,15.10
2017-09-07T03:43:36.939Z,15.10
2017-09-07T03:46:05.275Z,15.10
2017-09-07T03:48:33.613Z,15.10
2017-09-07T03:51:01.928Z,15.10
2017-09-07T03:53:31.024Z,15.00
2017-09-07T03:55:59.361Z,15.10
2017-09-07T03:58:28.441Z,15.10
2017-09-07T04:00:56.742Z,15.00
2017-09-07T04:03:25.080Z,15.00
2017-09-07T04:05:53.381Z,15.10
2017-09-07T04:08:21.744Z,15.10
2017-09-07T04:10:50.094Z,15.10
2017-09-07T04:13:18.402Z,15.10
2017-09-07T04:15:46.816Z,15.10
2017-09-07T04:18:16.049Z,15.10
2017-09-07T04:20:44.909Z,15.00
2017-09-07T04:23:13.311Z,15.10
2017-09-07T04:25:41.774Z,15.10
2017-09-07T04:28:10.156Z,15.10
2017-09-07T04:30:38.453Z,15.20
2017-09-07T04:33:06.782Z,15.20
2017-09-07T04:35:35.138Z,15.20
2017-09-07T04:38:03.430Z,15.20
2017-09-07T04:40:31.760Z,15.20
2017-09-07T04:43:00.076Z,15.20
2017-09-07T04:45:28.393Z,15.10
2017-09-07T04:47:56.973Z,15.10
2017-09-07T04:50:25.289Z,15.10
2017-09-07T04:52:53.629Z,15.00
2017-09-07T04:55:21.979Z,15.00
2017-09-07T04:57:50.661Z,15.10
2017-09-07T05:00:18.953Z,15.10
2017-09-07T05:02:47.256Z,15.10
2017-09-07T05:05:15.592Z,15.10
2017-09-07T05:07:43.912Z,15.10
2017-09-07T05:10:12.204Z,15.00
2017-09-07T05:12:40.531Z,15.10
2017-09-07T05:15:08.862Z,15.10
2017-09-07T05:17:37.209Z,15.10
2017-09-07T05:20:05.557Z,15.00
2017-09-07T05:22:33.897Z,15.00
2017-09-07T05:25:02.210Z,14.90
2017-09-07T05:27:30.523Z,14.90
2017-09-07T05:29:58.837Z,14.90
2017-09-07T05:32:27.154Z,14.90
2017-09-07T05:34:55.469Z,15.00
2017-09-07T05:37:23.798Z,14.90
2017-09-07T05:39:52.157Z,14.90
2017-09-07T05:42:20.470Z,14.90
2017-09-07T05:44:48.867Z,15.00
2017-09-07T05:47:17.154Z,15.00
2017-09-07T05:49:45.451Z,15.10
2017-09-07T05:52:13.796Z,15.10
2017-09-07T05:54:42.123Z,15.00
2017-09-07T05:57:10.427Z,15.00
2017-09-07T05:59:39.565Z,15.00
2017-09-07T06:02:07.895Z,15.00
2017-09-07T06:04:36.191Z,15.10
2017-09-07T06:07:04.496Z,15.10
2017-09-07T06:09:32.826Z,15.20
2017-09-07T06:12:01.125Z,15.20
2017-09-07T06:14:29.463Z,15.40
2017-09-07T06:16:57.765Z,15.50
2017-09-07T06:19:26.098Z,15.50
2017-09-07T06:21:54.405Z,15.60
2017-09-07T06:24:22.796Z,15.60
2017-09-07T06:26:51.129Z,15.70
2017-09-07T06:29:19.433Z,15.80
2017-09-07T06:31:47.745Z,15.80
2017-09-07T06:34:16.049Z,15.70
2017-09-07T06:36:44.441Z,15.60
2017-09-07T06:39:12.773Z,15.60
2017-09-07T06:41:41.105Z,15.60
2017-09-07T06:44:09.466Z,15.60
2017-09-07T06:46:38.568Z,15.70
2017-09-07T06:49:07.390Z,15.70
2017-09-07T06:51:35.756Z,15.80
2017-09-07T06:54:04.872Z,16.00
2017-09-07T06:56:33.173Z,16.00
2017-09-07T06:59:01.501Z,16.00
2017-09-07T07:01:29.793Z,16.10
2017-09-07T07:03:58.240Z,16.20
2017-09-07T07:06:26.574Z,16.30
2017-09-07T07:08:54.884Z,16.30
2017-09-07T07:11:23.214Z,16.40
2017-09-07T07:13:51.565Z,16.60
2017-09-07T07:16:19.903Z,16.70
2017-09-07T07:18:48.218Z,16.70
2017-09-07T07:21:16.575Z,16.80
2017-09-07T07:23:44.908Z,16.80
2017-09-07T07:26:13.244Z,16.80
2017-09-07T07:28:41.574Z,16.90
2017-09-07T07:31:09.902Z,17.00
2017-09-07T07:33:38.241Z,17.10
2017-09-07T07:36:06.568Z,17.10
2017-09-07T07:38:34.887Z,17.10
2017-09-07T07:41:03.225Z,17.10
2017-09-07T07:43:31.526Z,17.10
2017-09-07T07:45:59.826Z,17.10
2017-09-07T07:48:28.154Z,17.20
2017-09-07T07:50:56.494Z,17.20
2017-09-07T07:53:24.803Z,17.10
2017-09-07T07:55:53.182Z,17.10
2017-09-07T07:58:21.490Z,17.10
2017-09-07T08:00:49.808Z,17.20
2017-09-07T08:03:18.126Z,17.20
2017-09-07T08:05:46.594Z,17.20
2017-09-07T08:08:14.920Z,17.20
2017-09-07T08:10:43.394Z,17.20
2017-09-07T08:13:11.712Z,17.20
2017-09-07T08:15:40.011Z,17.40
2017-09-07T08:18:09.131Z,17.60
2017-09-07T08:20:37.543Z,17.50
2017-09-07T08:23:06.206Z,17.40
2017-09-07T08:25:34.530Z,17.60
2017-09-07T08:28:02.872Z,17.70
2017-09-07T08:30:31.170Z,17.90
2017-09-07T08:32:59.471Z,18.10
2017-09-07T08:35:27.838Z,18.20
2017-09-07T08:37:56.146Z,18.20
2017-09-07T08:40:24.453Z,18.20
2017-09-07T08:42:52.799Z,18.20
2017-09-07T08:45:21.107Z,18.20
2017-09-07T08:47:49.448Z,18.40
2017-09-07T08:50:17.798Z,18.60
2017-09-07T08:52:46.144Z,19.00
2017-09-07T08:55:14.479Z,19.40
2017-09-07T08:57:42.809Z,19.80
2017-09-07T09:00:11.108Z,20.10
2017-09-07T09:02:39.433Z,20.30
2017-09-07T09:05:07.741Z,20.20
2017-09-07T09:07:36.066Z,20.70
2017-09-07T09:10:04.398Z,21.00
2017-09-07T09:12:32.743Z,21.30
2017-09-07T09:15:01.074Z,21.60
2017-09-07T09:17:29.402Z,21.70
2017-09-07T09:19:57.774Z,21.70
2017-09-07T09:22:26.114Z,21.60
2017-09-07T09:24:54.528Z,22.10
2017-09-07T09:27:22.848Z,22.60
2017-09-07T09:29:51.147Z,22.90
2017-09-07T09:32:19.514Z,23.00
2017-09-07T09:34:47.937Z,22.90
2017-09-07T09:37:16.262Z,22.70
2017-09-07T09:39:44.670Z,22.90
2017-09-07T09:42:12.999Z,23.20
2017-09-07T09:44:41.320Z,23.20
2017-09-07T09:47:10.416Z,23.10
2017-09-07T09:49:38.803Z,23.30
2017-09-07T09:52:07.334Z,23.50
2017-09-07T09:54:38.551Z,23.50
2017-09-07T09:57:07.119Z,23.20
2017-09-07T09:59:35.433Z,22.70
2017-09-07T10:02:03.754Z,22.20
2017-09-07T10:04:32.164Z,22.20
2017-09-07T10:07:00.514Z,22.20
2017-09-07T10:09:28.853Z,22.10
2017-09-07T10:11:58.148Z,22.30
2017-09-07T10:14:26.510Z,22.60
2017-09-07T10:16:54.884Z,23.10
2017-09-07T10:19:23.266Z,23.30
2017-09-07T10:21:51.649Z,23.50
2017-09-07T10:24:19.989Z,23.50
2017-09-07T10:26:48.313Z,23.20
2017-09-07T10:29:17.779Z,22.90
2017-09-07T10:31:46.115Z,22.70
2017-09-07T10:34:14.497Z,22.50
2017-09-07T10:36:42.842Z,22.30
2017-09-07T10:39:11.165Z,22.00
2017-09-07T10:41:40.417Z,21.80
2017-09-07T10:44:08.828Z,21.60
2017-09-07T10:46:38.492Z,21.40
2017-09-07T10:49:06.853Z,21.30
2017-09-07T10:51:35.301Z,21.30
2017-09-07T10:54:12.455Z,21.30
2017-09-07T10:56:40.816Z,21.20
2017-09-07T10:59:09.376Z,21.30
2017-09-07T11:01:38.541Z,21.30
2017-09-07T11:04:09.553Z,21.20
2017-09-07T11:06:39.003Z,21.20
2017-09-07T11:09:07.407Z,21.20
2017-09-07T11:11:35.744Z,21.30
2017-09-07T11:14:04.103Z,21.40
2017-09-07T11:16:33.040Z,21.60
2017-09-07T11:19:01.371Z,21.90
2017-09-07T11:21:29.694Z,22.20
2017-09-07T11:23:58.033Z,22.40
2017-09-07T11:26:26.332Z,22.80
2017-09-07T11:28:55.855Z,22.90
2017-09-07T11:31:24.225Z,23.00
2017-09-07T11:33:55.083Z,23.00
2017-09-07T11:36:23.476Z,22.90
2017-09-07T11:38:51.827Z,22.90
2017-09-07T11:41:20.828Z,22.80
2017-09-07T11:43:49.274Z,22.70
2017-09-07T11:46:18.428Z,22.60
2017-09-07T11:48:46.833Z,22.40
2017-09-07T11:51:15.316Z,22.30
2017-09-07T11:53:44.591Z,22.10
2017-09-07T11:56:12.916Z,21.80
2017-09-07T11:58:42.911Z,21.70
2017-09-07T12:01:12.614Z,21.50
2017-09-07T12:03:54.585Z,21.40
2017-09-07T12:06:23.952Z,21.30
2017-09-07T12:08:52.295Z,21.10
2017-09-07T12:11:20.657Z,21.10
2017-09-07T12:13:50.460Z,21.00
2017-09-07T12:16:20.101Z,21.00
2017-09-07T12:18:49.383Z,21.00
2017-09-07T12:21:17.697Z,21.00
2017-09-07T12:23:46.220Z,21.00
2017-09-07T12:26:16.736Z,21.00
2017-09-07T12:28:46.134Z,20.90
2017-09-07T12:31:14.534Z,20.70
2017-09-07T12:33:42.845Z,20.70
2017-09-07T12:36:11.225Z,20.70
2017-09-07T12:38:41.507Z,20.70
2017-09-07T12:41:10.055Z,20.70
2017-09-07T12:43:38.378Z,20.70
2017-09-07T12:46:06.961Z,20.60
2017-09-07T12:48:35.295Z,20.60
2017-09-07T12:51:03.737Z,20.50
2017-09-07T12:53:34.950Z,20.70
2017-09-07T12:56:04.839Z,20.90
2017-09-07T12:58:33.499Z,21.10
2017-09-07T13:01:01.880Z,21.50
2017-09-07T13:03:30.216Z,21.70
2017-09-07T13:05:58.604Z,21.90
2017-09-07T13:08:26.966Z,21.70
2017-09-07T13:10:56.913Z,21.40
2017-09-07T13:13:26.497Z,21.30
2017-09-07T13:15:55.953Z,21.20
2017-09-07T13:18:26.082Z,21.00
2017-09-07T13:20:54.610Z,20.80
2017-09-07T13:23:23.139Z,20.60
2017-09-07T13:25:51.577Z,20.50
2017-09-07T13:28:20.788Z,20.40
2017-09-07T13:30:50.221Z,20.40
2017-09-07T13:33:18.750Z,20.40
2017-09-07T13:35:47.232Z,20.40
2017-09-07T13:38:15.670Z,20.40
2017-09-07T13:40:44.038Z,20.40
2017-09-07T13:43:13.196Z,20.40
2017-09-07T13:45:41.544Z,20.50
2017-09-07T13:48:10.722Z,20.50
2017-09-07T13:50:39.087Z,20.60
2017-09-07T13:53:08.254Z,20.60
2017-09-07T13:55:37.215Z,20.70
2017-09-07T13:58:06.399Z,20.70
2017-09-07T14:00:35.850Z,20.60
2017-09-07T14:03:14.446Z,20.70
2017-09-07T14:05:44.979Z,20.90
2017-09-07T14:08:18.904Z,21.10
2017-09-07T14:10:59.388Z,21.20
2017-09-07T14:16:47.625Z,21.00
2017-09-07T14:19:16.012Z,21.10
2017-09-07T14:21:45.074Z,21.00
2017-09-07T14:24:14.173Z,21.00
2017-09-07T14:26:42.481Z,21.00
2017-09-07T14:29:10.781Z,20.90
2017-09-07T14:31:39.128Z,21.00
2017-09-07T14:34:07.441Z,21.00
2017-09-07T14:36:35.902Z,20.90
2017-09-07T14:39:04.236Z,20.90
2017-09-07T14:41:32.545Z,20.90
2017-09-07T14:44:00.950Z,21.00
2017-09-07T14:46:29.259Z,20.90
2017-09-07T14:48:57.561Z,20.80
2017-09-07T14:51:25.891Z,20.60
2017-09-07T14:53:54.206Z,20.60
2017-09-07T14:56:22.526Z,20.50
2017-09-07T14:58:50.846Z,20.50
2017-09-07T15:01:19.151Z,20.50
2017-09-07T15:03:47.549Z,20.50
2017-09-07T15:06:15.849Z,20.50
2017-09-07T15:08:44.198Z,20.40
2017-09-07T15:11:12.533Z,20.40
2017-09-07T15:13:41.077Z,20.40
2017-09-07T15:16:09.380Z,20.40
2017-09-07T15:18:37.681Z,20.30
2017-09-07T15:21:06.024Z,20.40
2017-09-07T15:23:34.331Z,20.40
2017-09-07T15:26:02.667Z,20.50
2017-09-07T15:28:30.983Z,20.60
2017-09-07T15:30:59.451Z,20.60
2017-09-07T15:33:27.734Z,20.40
2017-09-07T15:35:56.031Z,20.40
2017-09-07T15:38:24.392Z,20.30
2017-09-07T15:40:52.689Z,20.30
2017-09-07T15:43:21.017Z,20.30
2017-09-07T15:45:49.393Z,20.30
2017-09-07T15:48:18.010Z,20.20
2017-09-07T15:50:46.352Z,20.30
2017-09-07T15:53:14.644Z,20.30
2017-09-07T15:55:42.973Z,20.10
2017-09-07T15:58:11.310Z,20.10
2017-09-07T16:00:39.652Z,20.00
2017-09-07T16:03:07.981Z,19.90
2017-09-07T16:05:36.274Z,20.00
2017-09-07T16:08:04.717Z,19.90
2017-09-07T16:10:33.060Z,19.90
2017-09-07T16:13:01.365Z,19.90
2017-09-07T16:15:29.667Z,19.80
2017-09-07T16:17:58.009Z,19.80
2017-09-07T16:20:26.328Z,19.80
2017-09-07T16:22:54.773Z,19.80
2017-09-07T16:25:23.072Z,19.70
2017-09-07T16:27:51.365Z,19.70
2017-09-07T16:30:19.698Z,19.60
2017-09-07T16:32:48.001Z,19.60
2017-09-07T16:35:16.317Z,19.50
2017-09-07T16:37:44.757Z,19.40
2017-09-07T16:40:13.853Z,19.30
2017-09-07T16:42:42.242Z,19.30
2017-09-07T16:45:10.618Z,19.30
2017-09-07T16:47:38.908Z,19.30
2017-09-07T16:50:07.200Z,19.20
2017-09-07T16:52:35.523Z,19.20
2017-09-07T16:55:04.361Z,19.20
2017-09-07T16:57:32.689Z,19.20
2017-09-07T17:00:00.998Z,19.10
2017-09-07T17:02:29.397Z,19.10
2017-09-07T17:04:57.706Z,19.10
2017-09-07T17:07:26.010Z,19.10
2017-09-07T17:09:54.373Z,19.20
2017-09-07T17:12:22.705Z,19.20
2017-09-07T17:14:51.108Z,19.10
2017-09-07T17:17:19.442Z,19.10
2017-09-07T17:19:47.741Z,19.00
2017-09-07T17:22:16.047Z,19.00
2017-09-07T17:24:44.362Z,18.90
2017-09-07T17:27:12.670Z,18.90
2017-09-07T17:29:41.270Z,18.80
2017-09-07T17:32:09.605Z,18.80
2017-09-07T17:34:38.712Z,18.80
2017-09-07T17:37:07.093Z,18.70
2017-09-07T17:39:35.452Z,18.70
2017-09-07T17:42:03.781Z,18.70
2017-09-07T17:44:32.105Z,18.80
2017-09-07T17:47:00.409Z,18.70
2017-09-07T17:49:28.768Z,18.60
2017-09-07T17:51:57.133Z,18.60
2017-09-07T17:54:25.807Z,18.60
2017-09-07T17:56:54.100Z,18.60
2017-09-07T17:59:22.401Z,18.50
2017-09-07T18:01:50.754Z,18.50
2017-09-07T18:04:19.065Z,18.50
2017-09-07T18:06:47.390Z,18.40
2017-09-07T18:09:15.696Z,18.40
2017-09-07T18:11:44.035Z,18.40
2017-09-07T18:14:12.329Z,18.50
2017-09-07T18:16:40.630Z,18.40
2017-09-07T18:19:08.953Z,18.40
2017-09-07T18:21:37.298Z,18.40
2017-09-07T18:24:05.991Z,18.40
2017-09-07T18:26:34.309Z,18.40
2017-09-07T18:29:02.640Z,18.40
2017-09-07T18:31:31.733Z,18.30
2017-09-07T18:34:00.038Z,18.30
2017-09-07T18:36:28.348Z,18.30
2017-09-07T18:38:57.522Z,18.20
2017-09-07T18:41:25.828Z,18.20
2017-09-07T18:43:54.174Z,18.20
2017-09-07T18:46:22.555Z,18.10
2017-09-07T18:48:50.859Z,18.10
2017-09-07T18:51:19.173Z,18.10
2017-09-07T18:53:47.482Z,18.10
2017-09-07T18:56:16.573Z,18.00
2017-09-07T18:58:44.895Z,18.00
2017-09-07T19:01:13.346Z,18.00
2017-09-07T19:03:41.657Z,18.00
2017-09-07T19:06:09.973Z,18.00
2017-09-07T19:08:38.356Z,17.90
2017-09-07T19:11:06.698Z,17.90
2017-09-07T19:13:35.028Z,17.90
2017-09-07T19:16:03.581Z,17.90
2017-09-07T19:18:31.931Z,17.90
2017-09-07T19:21:00.274Z,17.90
2017-09-07T19:23:28.579Z,17.90
2017-09-07T19:25:57.544Z,17.90
2017-09-07T19:28:25.915Z,17.90
2017-09-07T19:30:55.313Z,17.90
2017-09-07T19:33:23.615Z,18.00
2017-09-07T19:35:51.978Z,18.00
2017-09-07T19:38:20.287Z,17.90
2017-09-07T19:40:48.598Z,17.90
2017-09-07T19:43:16.961Z,18.00
2017-09-07T19:45:45.280Z,18.00
2017-09-07T19:48:13.601Z,18.00
2017-09-07T19:50:41.974Z,18.00
2017-09-07T19:53:10.328Z,18.00
2017-09-07T19:55:38.649Z,18.00
2017-09-07T19:58:06.958Z,17.90
2017-09-07T20:00:35.315Z,18.00
2017-09-07T20:03:03.617Z,18.00
2017-09-07T20:05:31.961Z,17.90
2017-09-07T20:08:00.317Z,17.90
2017-09-07T20:10:28.629Z,17.80
2017-09-07T20:12:57.688Z,17.90
2017-09-07T20:15:26.497Z,17.90
2017-09-07T20:17:55.783Z,17.90
2017-09-07T20:20:24.858Z,17.80
2017-09-07T20:22:53.185Z,17.80
2017-09-07T20:25:21.497Z,17.80
2017-09-07T20:27:49.869Z,17.80
2017-09-07T20:30:18.184Z,17.80
2017-09-07T20:32:46.476Z,17.70
2017-09-07T20:35:14.811Z,17.60
2017-09-07T20:37:43.133Z,17.60
2017-09-07T20:40:11.429Z,17.50
2017-09-07T20:42:39.881Z,17.60
2017-09-07T20:45:09.031Z,17.60
2017-09-07T20:47:37.334Z,17.60
2017-09-07T20:50:05.743Z,17.60
2017-09-07T20:52:34.059Z,17.70
2017-09-07T20:55:02.378Z,17.80
2017-09-07T20:57:30.720Z,17.80
2017-09-07T20:59:59.042Z,17.80
2017-09-07T21:02:27.340Z,17.80
2017-09-07T21:04:55.671Z,17.80
2017-09-07T21:07:24.004Z,17.70
2017-09-07T21:09:52.326Z,17.80
2017-09-07T21:12:20.630Z,17.70
2017-09-07T21:14:48.943Z,17.70
2017-09-07T21:17:17.276Z,17.70
2017-09-07T21:19:45.629Z,17.60
2017-09-07T21:22:13.928Z,17.60
2017-09-07T21:24:42.250Z,17.50
2017-09-07T21:27:10.624Z,17.60
2017-09-07T21:29:39.009Z,17.70
2017-09-07T21:32:07.369Z,17.70
2017-09-07T21:34:36.013Z,17.70
2017-09-07T21:37:04.356Z,17.80
2017-09-07T21:39:32.680Z,17.80
2017-09-07T21:42:01.003Z,17.70
2017-09-07T21:44:29.325Z,17.70
2017-09-07T21:46:57.683Z,17.60
2017-09-07T21:49:26.017Z,17.50
2017-09-07T21:51:54.355Z,17.50
2017-09-07T21:54:22.662Z,17.50
2017-09-07T21:56:50.973Z,17.50
2017-09-07T21:59:19.345Z,17.40
2017-09-07T22:01:47.689Z,17.40
2017-09-07T22:04:15.983Z,17.40
2017-09-07T22:06:44.344Z,17.40
2017-09-07T22:09:12.637Z,17.40
2017-09-07T22:11:40.971Z,17.40
2017-09-07T22:14:09.458Z,17.40
2017-09-07T22:16:37.864Z,17.30
2017-09-07T22:19:06.362Z,17.40
2017-09-07T22:21:34.709Z,17.40
2017-09-07T22:24:03.008Z,17.40
2017-09-07T22:26:31.313Z,17.40
2017-09-07T22:28:59.690Z,17.50
2017-09-07T22:31:27.992Z,17.40
2017-09-07T22:33:56.294Z,17.40
2017-09-07T22:36:24.624Z,17.40
2017-09-07T22:38:52.925Z,17.50
2017-09-07T22:41:21.249Z,17.40
2017-09-07T22:43:49.576Z,17.40
2017-09-07T22:46:17.905Z,17.40
2017-09-07T22:48:46.224Z,17.30
2017-09-07T22:51:15.314Z,17.40
2017-09-07T22:53:43.621Z,17.40
2017-09-07T22:56:11.994Z,17.50
2017-09-07T22:58:40.329Z,17.40
2017-09-07T23:01:08.662Z,17.30
2017-09-07T23:03:37.001Z,17.30
2017-09-07T23:06:05.350Z,17.20
2017-09-07T23:08:33.883Z,17.20
2017-09-07T23:11:02.256Z,17.10
2017-09-07T23:13:30.583Z,17.10
2017-09-07T23:15:58.956Z,17.10
2017-09-07T23:18:27.253Z,17.00
2017-09-07T23:20:55.579Z,17.00
2017-09-07T23:23:23.938Z,17.00
2017-09-07T23:25:52.264Z,17.00
2017-09-07T23:28:21.051Z,17.00
2017-09-07T23:30:49.373Z,17.00
2017-09-07T23:33:17.702Z,17.00
2017-09-07T23:35:46.030Z,17.00
2017-09-07T23:38:14.341Z,17.10
2017-09-07T23:40:43.521Z,17.10
2017-09-07T23:43:12.763Z,17.00
2017-09-07T23:45:41.146Z,17.00
2017-09-07T23:48:09.446Z,17.00
2017-09-07T23:50:37.889Z,17.10
2017-09-07T23:53:06.349Z,17.10
2017-09-07T23:55:34.649Z,17.10
2017-09-07T23:58:03.046Z,17.20
